メインページ
METAR-TAF:

METAR-TAF

空港 :

アテネ国際空港

アテネ, ギリシャ

緯度: 37-56N, 経度: 023-56E, 海抜: 94m

現時点の気象観測

当レポートは16分前の00:20(UTC)に作成
北/北東の風 10kt
気温 13°C
湿度 67%
気圧 1021 hPa
視程10km以上
高度3000ftの雲は散在している

METAR: LGAV 150020Z 03010KT 9999 SCT030 13/07 Q1021 NOSIG

時間: 02:36 (00:36 UTC)

予報

当レポートは1時間36分前の23:00(UTC)に作成
予報は15日の 00時(UTC)から 15日の 24時(UTC)まで有効
の風 10kt
視程10km以上
高度2000ftの雲はほとんどない
高度4000ftの雲は散在している
15日の 13時(UTC)から 15日の 15時(UTC)まで徐々に
北/北東の風 20kt
確率 40% :
15日の 06時(UTC)から 15日の 16時(UTC)まで一時的に
視程: 5000m
高度2000ftの雲は散在している
高度3000ftの千切れ雲あり

TAF: LGAV 142300Z 1500/1524 01010KT 9999 FEW020 SCT040 BECMG 1513/1515 02020KT PROB40 TEMPO 1506/1516 5000 RA SCT020 BKN030

4,000以上の空港の気象観測と天気予報(METAR報とTAF報)

利用可能な観測所は地図上に黄色い丸と赤い丸で示す。

丸の上にカーソルを重ねると観測所名を参照できる。

次にクリックすると気象観測と天気予報を参照できる。

マップの切り替え:黒色「×」印の緑ボタンをクリックして拡大、「-」印の緑ボタンをクリックして縮小、緑色の三角印をクリックして隣りの地図に切り替え


METAR-TAF: